sensor_id;sensor_type;location;lat;lon;timestamp;P1;durP1;ratioP1;P2;durP2;ratioP2
50281;SDS011;36176;51.506;10.272;2023-07-08T00:01:16;7.47;;;6.97;;
50281;SDS011;36176;51.506;10.272;2023-07-08T00:03:46;5.03;;;4.33;;
50281;SDS011;36176;51.506;10.272;2023-07-08T00:06:25;7.27;;;6.57;;
50281;SDS011;36176;51.506;10.272;2023-07-08T00:08:54;5.40;;;4.90;;
50281;SDS011;36176;51.506;10.272;2023-07-08T00:11:22;4.57;;;4.20;;
50281;SDS011;36176;51.506;10.272;2023-07-08T00:13:49;6.30;;;5.70;;
50281;SDS011;36176;51.506;10.272;2023-07-08T00:16:17;5.13;;;4.83;;
50281;SDS011;36176;51.506;10.272;2023-07-08T00:18:46;4.93;;;4.63;;
50281;SDS011;36176;51.506;10.272;2023-07-08T00:21:16;4.07;;;3.60;;
50281;SDS011;36176;51.506;10.272;2023-07-08T00:23:44;5.97;;;5.60;;
50281;SDS011;36176;51.506;10.272;2023-07-08T00:26:21;5.77;;;4.27;;
50281;SDS011;36176;51.506;10.272;2023-07-08T00:28:51;6.60;;;5.87;;
50281;SDS011;36176;51.506;10.272;2023-07-08T00:31:19;4.93;;;4.53;;
50281;SDS011;36176;51.506;10.272;2023-07-08T00:33:52;6.17;;;5.70;;
50281;SDS011;36176;51.506;10.272;2023-07-08T00:36:24;4.57;;;4.17;;
50281;SDS011;36176;51.506;10.272;2023-07-08T00:38:54;5.47;;;5.07;;
50281;SDS011;36176;51.506;10.272;2023-07-08T00:41:22;4.60;;;4.13;;
50281;SDS011;36176;51.506;10.272;2023-07-08T00:43:55;3.77;;;3.47;;
50281;SDS011;36176;51.506;10.272;2023-07-08T00:48:59;6.40;;;5.80;;
50281;SDS011;36176;51.506;10.272;2023-07-08T00:51:36;5.13;;;3.17;;
50281;SDS011;36176;51.506;10.272;2023-07-08T00:54:14;4.43;;;4.00;;
50281;SDS011;36176;51.506;10.272;2023-07-08T00:56:53;5.70;;;5.30;;
50281;SDS011;36176;51.506;10.272;2023-07-08T00:59:25;5.77;;;5.37;;
50281;SDS011;36176;51.506;10.272;2023-07-08T01:01:57;7.57;;;7.07;;
50281;SDS011;36176;51.506;10.272;2023-07-08T01:04:49;3.63;;;3.33;;
50281;SDS011;36176;51.506;10.272;2023-07-08T01:07:19;4.50;;;3.97;;
50281;SDS011;36176;51.506;10.272;2023-07-08T01:09:50;4.90;;;4.43;;
50281;SDS011;36176;51.506;10.272;2023-07-08T01:12:23;5.50;;;5.10;;
50281;SDS011;36176;51.506;10.272;2023-07-08T01:14:57;4.47;;;4.07;;
50281;SDS011;36176;51.506;10.272;2023-07-08T01:17:29;5.10;;;4.70;;
50281;SDS011;36176;51.506;10.272;2023-07-08T01:20:00;4.67;;;4.27;;
50281;SDS011;36176;51.506;10.272;2023-07-08T01:22:35;4.50;;;4.20;;
50281;SDS011;36176;51.506;10.272;2023-07-08T01:25:03;4.50;;;3.40;;
50281;SDS011;36176;51.506;10.272;2023-07-08T01:27:31;5.37;;;4.97;;
50281;SDS011;36176;51.506;10.272;2023-07-08T01:30:02;5.13;;;4.63;;
50281;SDS011;36176;51.506;10.272;2023-07-08T01:32:31;6.10;;;5.67;;
50281;SDS011;36176;51.506;10.272;2023-07-08T01:35:01;6.50;;;6.10;;
50281;SDS011;36176;51.506;10.272;2023-07-08T01:37:33;5.60;;;5.20;;
50281;SDS011;36176;51.506;10.272;2023-07-08T01:42:48;7.07;;;6.57;;
50281;SDS011;36176;51.506;10.272;2023-07-08T01:45:16;5.00;;;4.60;;
50281;SDS011;36176;51.506;10.272;2023-07-08T01:47:50;8.43;;;7.60;;
50281;SDS011;36176;51.506;10.272;2023-07-08T01:50:21;5.80;;;5.40;;
50281;SDS011;36176;51.506;10.272;2023-07-08T01:52:52;7.90;;;7.30;;
50281;SDS011;36176;51.506;10.272;2023-07-08T01:55:21;5.47;;;5.07;;
50281;SDS011;36176;51.506;10.272;2023-07-08T01:57:53;6.80;;;6.20;;
50281;SDS011;36176;51.506;10.272;2023-07-08T02:00:21;5.43;;;5.03;;
50281;SDS011;36176;51.506;10.272;2023-07-08T02:02:49;6.30;;;5.90;;
50281;SDS011;36176;51.506;10.272;2023-07-08T02:05:17;6.37;;;5.97;;
50281;SDS011;36176;51.506;10.272;2023-07-08T02:07:44;6.53;;;6.07;;
50281;SDS011;36176;51.506;10.272;2023-07-08T02:10:12;6.47;;;6.07;;
50281;SDS011;36176;51.506;10.272;2023-07-08T02:12:39;5.20;;;4.90;;
50281;SDS011;36176;51.506;10.272;2023-07-08T02:15:06;6.07;;;5.63;;
50281;SDS011;36176;51.506;10.272;2023-07-08T02:17:35;6.40;;;5.97;;
50281;SDS011;36176;51.506;10.272;2023-07-08T02:20:02;4.87;;;4.47;;
50281;SDS011;36176;51.506;10.272;2023-07-08T02:22:30;7.03;;;6.50;;
50281;SDS011;36176;51.506;10.272;2023-07-08T02:24:57;5.97;;;5.57;;
50281;SDS011;36176;51.506;10.272;2023-07-08T02:27:24;6.37;;;5.97;;
50281;SDS011;36176;51.506;10.272;2023-07-08T02:29:51;8.17;;;7.57;;
50281;SDS011;36176;51.506;10.272;2023-07-08T02:32:18;4.97;;;4.67;;
50281;SDS011;36176;51.506;10.272;2023-07-08T02:34:45;5.40;;;5.00;;
50281;SDS011;36176;51.506;10.272;2023-07-08T02:37:12;5.10;;;4.67;;
50281;SDS011;36176;51.506;10.272;2023-07-08T02:39:40;7.37;;;6.10;;
50281;SDS011;36176;51.506;10.272;2023-07-08T02:42:08;5.00;;;4.60;;
50281;SDS011;36176;51.506;10.272;2023-07-08T02:44:35;5.80;;;5.40;;
50281;SDS011;36176;51.506;10.272;2023-07-08T02:47:02;6.10;;;5.60;;
50281;SDS011;36176;51.506;10.272;2023-07-08T02:49:30;7.63;;;7.13;;
50281;SDS011;36176;51.506;10.272;2023-07-08T02:51:57;6.20;;;5.70;;
50281;SDS011;36176;51.506;10.272;2023-07-08T02:54:25;10.77;;;10.07;;
50281;SDS011;36176;51.506;10.272;2023-07-08T02:56:53;9.10;;;8.53;;
50281;SDS011;36176;51.506;10.272;2023-07-08T02:59:20;9.13;;;8.53;;
50281;SDS011;36176;51.506;10.272;2023-07-08T03:01:47;7.93;;;7.33;;
50281;SDS011;36176;51.506;10.272;2023-07-08T03:04:16;7.07;;;6.57;;
50281;SDS011;36176;51.506;10.272;2023-07-08T03:06:45;8.83;;;8.27;;
50281;SDS011;36176;51.506;10.272;2023-07-08T03:09:12;7.33;;;6.73;;
50281;SDS011;36176;51.506;10.272;2023-07-08T03:11:40;7.53;;;7.03;;
50281;SDS011;36176;51.506;10.272;2023-07-08T03:14:07;8.13;;;7.63;;
50281;SDS011;36176;51.506;10.272;2023-07-08T03:16:34;8.47;;;7.73;;
50281;SDS011;36176;51.506;10.272;2023-07-08T03:19:02;7.10;;;6.60;;
50281;SDS011;36176;51.506;10.272;2023-07-08T03:21:29;11.13;;;10.33;;
50281;SDS011;36176;51.506;10.272;2023-07-08T03:23:56;6.37;;;5.87;;
50281;SDS011;36176;51.506;10.272;2023-07-08T03:26:24;8.20;;;7.70;;
50281;SDS011;36176;51.506;10.272;2023-07-08T03:28:56;7.53;;;7.00;;
50281;SDS011;36176;51.506;10.272;2023-07-08T03:31:23;7.87;;;7.37;;
50281;SDS011;36176;51.506;10.272;2023-07-08T03:33:50;7.90;;;7.40;;
50281;SDS011;36176;51.506;10.272;2023-07-08T03:36:18;7.33;;;6.90;;
50281;SDS011;36176;51.506;10.272;2023-07-08T03:38:52;10.10;;;9.50;;
50281;SDS011;36176;51.506;10.272;2023-07-08T03:41:22;9.67;;;9.07;;
50281;SDS011;36176;51.506;10.272;2023-07-08T03:43:50;6.13;;;5.73;;
50281;SDS011;36176;51.506;10.272;2023-07-08T03:46:18;7.73;;;7.17;;
50281;SDS011;36176;51.506;10.272;2023-07-08T03:48:48;7.10;;;6.60;;
50281;SDS011;36176;51.506;10.272;2023-07-08T03:51:28;7.90;;;7.40;;
50281;SDS011;36176;51.506;10.272;2023-07-08T03:53:58;8.67;;;7.97;;
50281;SDS011;36176;51.506;10.272;2023-07-08T03:56:26;6.87;;;6.37;;
50281;SDS011;36176;51.506;10.272;2023-07-08T03:58:53;8.27;;;7.47;;
50281;SDS011;36176;51.506;10.272;2023-07-08T04:01:22;8.67;;;7.97;;
50281;SDS011;36176;51.506;10.272;2023-07-08T04:03:52;7.40;;;6.80;;
50281;SDS011;36176;51.506;10.272;2023-07-08T04:06:20;8.40;;;7.80;;
50281;SDS011;36176;51.506;10.272;2023-07-08T04:08:48;8.03;;;7.47;;
50281;SDS011;36176;51.506;10.272;2023-07-08T04:11:30;7.93;;;6.83;;
50281;SDS011;36176;51.506;10.272;2023-07-08T04:13:58;6.03;;;5.43;;
50281;SDS011;36176;51.506;10.272;2023-07-08T04:16:26;7.20;;;6.50;;
50281;SDS011;36176;51.506;10.272;2023-07-08T04:18:58;5.43;;;5.03;;
50281;SDS011;36176;51.506;10.272;2023-07-08T04:21:25;7.73;;;7.20;;
50281;SDS011;36176;51.506;10.272;2023-07-08T04:23:53;6.63;;;6.13;;
50281;SDS011;36176;51.506;10.272;2023-07-08T04:26:20;5.83;;;5.40;;
50281;SDS011;36176;51.506;10.272;2023-07-08T04:28:47;6.03;;;5.43;;
50281;SDS011;36176;51.506;10.272;2023-07-08T04:31:14;5.70;;;5.30;;
50281;SDS011;36176;51.506;10.272;2023-07-08T04:33:43;4.50;;;4.17;;
50281;SDS011;36176;51.506;10.272;2023-07-08T04:36:11;7.00;;;6.30;;
50281;SDS011;36176;51.506;10.272;2023-07-08T04:38:40;6.27;;;5.73;;
50281;SDS011;36176;51.506;10.272;2023-07-08T04:41:08;6.53;;;6.03;;
50281;SDS011;36176;51.506;10.272;2023-07-08T04:43:36;7.70;;;7.03;;
50281;SDS011;36176;51.506;10.272;2023-07-08T04:46:03;6.50;;;5.93;;
50281;SDS011;36176;51.506;10.272;2023-07-08T04:48:37;4.47;;;4.07;;
50281;SDS011;36176;51.506;10.272;2023-07-08T04:51:04;8.43;;;7.83;;
50281;SDS011;36176;51.506;10.272;2023-07-08T04:53:31;5.87;;;5.37;;
50281;SDS011;36176;51.506;10.272;2023-07-08T04:55:58;4.70;;;4.33;;
50281;SDS011;36176;51.506;10.272;2023-07-08T04:58:29;3.73;;;3.33;;
50281;SDS011;36176;51.506;10.272;2023-07-08T05:00:56;5.40;;;4.90;;
50281;SDS011;36176;51.506;10.272;2023-07-08T05:03:23;4.43;;;4.00;;
50281;SDS011;36176;51.506;10.272;2023-07-08T05:05:50;3.53;;;3.22;;
50281;SDS011;36176;51.506;10.272;2023-07-08T05:08:18;4.25;;;3.40;;
50281;SDS011;36176;51.506;10.272;2023-07-08T05:10:45;7.18;;;6.55;;
50281;SDS011;36176;51.506;10.272;2023-07-08T05:13:12;7.05;;;6.53;;
50281;SDS011;36176;51.506;10.272;2023-07-08T05:15:39;3.70;;;2.60;;
50281;SDS011;36176;51.506;10.272;2023-07-08T05:18:06;5.95;;;5.50;;
50281;SDS011;36176;51.506;10.272;2023-07-08T05:20:33;4.82;;;2.80;;
50281;SDS011;36176;51.506;10.272;2023-07-08T05:23:02;3.72;;;2.70;;
50281;SDS011;36176;51.506;10.272;2023-07-08T05:25:31;5.00;;;2.78;;
50281;SDS011;36176;51.506;10.272;2023-07-08T05:27:59;4.20;;;2.70;;
50281;SDS011;36176;51.506;10.272;2023-07-08T05:30:27;3.20;;;2.70;;
50281;SDS011;36176;51.506;10.272;2023-07-08T05:32:54;3.75;;;3.45;;
50281;SDS011;36176;51.506;10.272;2023-07-08T05:35:21;4.38;;;2.95;;
50281;SDS011;36176;51.506;10.272;2023-07-08T05:37:48;4.13;;;3.00;;
50281;SDS011;36176;51.506;10.272;2023-07-08T05:40:15;3.95;;;2.67;;
50281;SDS011;36176;51.506;10.272;2023-07-08T05:42:43;5.57;;;5.03;;
50281;SDS011;36176;51.506;10.272;2023-07-08T05:45:11;4.43;;;2.83;;
50281;SDS011;36176;51.506;10.272;2023-07-08T05:47:38;8.65;;;8.02;;
50281;SDS011;36176;51.506;10.272;2023-07-08T05:50:05;4.18;;;2.63;;
50281;SDS011;36176;51.506;10.272;2023-07-08T05:52:33;4.55;;;3.38;;
50281;SDS011;36176;51.506;10.272;2023-07-08T05:55:00;5.25;;;3.58;;
50281;SDS011;36176;51.506;10.272;2023-07-08T05:57:27;5.30;;;4.93;;
50281;SDS011;36176;51.506;10.272;2023-07-08T05:59:55;3.20;;;2.88;;
50281;SDS011;36176;51.506;10.272;2023-07-08T06:02:22;8.68;;;8.10;;
50281;SDS011;36176;51.506;10.272;2023-07-08T06:04:52;3.88;;;3.45;;
50281;SDS011;36176;51.506;10.272;2023-07-08T06:07:19;7.35;;;3.40;;
50281;SDS011;36176;51.506;10.272;2023-07-08T06:09:47;3.90;;;3.13;;
50281;SDS011;36176;51.506;10.272;2023-07-08T06:12:17;5.88;;;3.58;;
50281;SDS011;36176;51.506;10.272;2023-07-08T06:14:44;7.00;;;3.17;;
50281;SDS011;36176;51.506;10.272;2023-07-08T06:17:11;4.47;;;2.80;;
50281;SDS011;36176;51.506;10.272;2023-07-08T06:19:38;4.53;;;3.22;;
50281;SDS011;36176;51.506;10.272;2023-07-08T06:22:05;4.78;;;4.03;;
50281;SDS011;36176;51.506;10.272;2023-07-08T06:24:52;9.63;;;7.97;;
50281;SDS011;36176;51.506;10.272;2023-07-08T06:27:19;3.42;;;3.13;;
50281;SDS011;36176;51.506;10.272;2023-07-08T06:29:46;5.90;;;5.28;;
50281;SDS011;36176;51.506;10.272;2023-07-08T06:32:14;6.25;;;2.75;;
50281;SDS011;36176;51.506;10.272;2023-07-08T06:34:41;2.60;;;2.20;;
50281;SDS011;36176;51.506;10.272;2023-07-08T06:37:08;6.75;;;2.30;;
50281;SDS011;36176;51.506;10.272;2023-07-08T06:39:35;4.45;;;2.38;;
50281;SDS011;36176;51.506;10.272;2023-07-08T06:42:05;2.92;;;2.15;;
50281;SDS011;36176;51.506;10.272;2023-07-08T06:44:33;7.97;;;7.38;;
50281;SDS011;36176;51.506;10.272;2023-07-08T06:47:00;2.85;;;2.63;;
50281;SDS011;36176;51.506;10.272;2023-07-08T06:49:27;4.22;;;2.28;;
50281;SDS011;36176;51.506;10.272;2023-07-08T06:51:55;3.45;;;2.20;;
50281;SDS011;36176;51.506;10.272;2023-07-08T06:54:24;7.13;;;6.53;;
50281;SDS011;36176;51.506;10.272;2023-07-08T06:56:51;5.80;;;2.17;;
50281;SDS011;36176;51.506;10.272;2023-07-08T06:59:18;5.15;;;2.40;;
50281;SDS011;36176;51.506;10.272;2023-07-08T07:01:45;2.15;;;1.90;;
50281;SDS011;36176;51.506;10.272;2023-07-08T07:04:13;5.32;;;4.93;;
50281;SDS011;36176;51.506;10.272;2023-07-08T07:06:40;2.53;;;2.20;;
50281;SDS011;36176;51.506;10.272;2023-07-08T07:09:07;4.75;;;2.30;;
50281;SDS011;36176;51.506;10.272;2023-07-08T07:11:34;2.72;;;2.50;;
50281;SDS011;36176;51.506;10.272;2023-07-08T07:14:01;3.60;;;2.40;;
50281;SDS011;36176;51.506;10.272;2023-07-08T07:16:29;2.50;;;2.30;;
50281;SDS011;36176;51.506;10.272;2023-07-08T07:18:56;2.50;;;2.30;;
50281;SDS011;36176;51.506;10.272;2023-07-08T07:21:24;4.03;;;3.03;;
50281;SDS011;36176;51.506;10.272;2023-07-08T07:23:51;3.65;;;2.25;;
50281;SDS011;36176;51.506;10.272;2023-07-08T07:26:18;3.50;;;2.20;;
50281;SDS011;36176;51.506;10.272;2023-07-08T07:28:45;3.33;;;2.35;;
50281;SDS011;36176;51.506;10.272;2023-07-08T07:31:12;2.28;;;2.08;;
50281;SDS011;36176;51.506;10.272;2023-07-08T07:33:39;2.92;;;2.65;;
50281;SDS011;36176;51.506;10.272;2023-07-08T07:36:06;3.45;;;2.10;;
50281;SDS011;36176;51.506;10.272;2023-07-08T07:38:34;3.65;;;2.20;;
50281;SDS011;36176;51.506;10.272;2023-07-08T07:41:01;5.20;;;2.30;;
50281;SDS011;36176;51.506;10.272;2023-07-08T07:43:33;2.72;;;2.40;;
50281;SDS011;36176;51.506;10.272;2023-07-08T07:46:01;5.55;;;2.30;;
50281;SDS011;36176;51.506;10.272;2023-07-08T07:48:29;3.65;;;2.20;;
50281;SDS011;36176;51.506;10.272;2023-07-08T07:50:57;4.00;;;2.38;;
50281;SDS011;36176;51.506;10.272;2023-07-08T07:53:24;2.67;;;2.47;;
50281;SDS011;36176;51.506;10.272;2023-07-08T07:55:58;3.10;;;2.83;;
50281;SDS011;36176;51.506;10.272;2023-07-08T07:58:26;3.65;;;2.63;;
50281;SDS011;36176;51.506;10.272;2023-07-08T08:00:53;2.40;;;2.20;;
50281;SDS011;36176;51.506;10.272;2023-07-08T08:03:20;2.85;;;2.28;;
50281;SDS011;36176;51.506;10.272;2023-07-08T08:05:48;4.07;;;2.85;;
50281;SDS011;36176;51.506;10.272;2023-07-08T08:08:16;4.95;;;2.22;;
50281;SDS011;36176;51.506;10.272;2023-07-08T08:10:44;3.17;;;2.22;;
50281;SDS011;36176;51.506;10.272;2023-07-08T08:13:11;2.83;;;2.30;;
50281;SDS011;36176;51.506;10.272;2023-07-08T08:15:39;4.07;;;2.50;;
50281;SDS011;36176;51.506;10.272;2023-07-08T08:18:06;3.05;;;2.47;;
50281;SDS011;36176;51.506;10.272;2023-07-08T08:20:33;3.85;;;2.20;;
50281;SDS011;36176;51.506;10.272;2023-07-08T08:23:00;2.78;;;2.58;;
50281;SDS011;36176;51.506;10.272;2023-07-08T08:25:28;2.60;;;2.33;;
50281;SDS011;36176;51.506;10.272;2023-07-08T08:27:55;8.80;;;8.10;;
50281;SDS011;36176;51.506;10.272;2023-07-08T08:30:22;3.45;;;2.28;;
50281;SDS011;36176;51.506;10.272;2023-07-08T08:32:50;4.85;;;2.20;;
50281;SDS011;36176;51.506;10.272;2023-07-08T08:35:17;3.63;;;3.20;;
50281;SDS011;36176;51.506;10.272;2023-07-08T08:37:44;4.00;;;2.50;;
50281;SDS011;36176;51.506;10.272;2023-07-08T08:40:13;5.20;;;4.80;;
50281;SDS011;36176;51.506;10.272;2023-07-08T08:42:50;4.57;;;2.25;;
50281;SDS011;36176;51.506;10.272;2023-07-08T08:45:20;5.95;;;3.08;;
50281;SDS011;36176;51.506;10.272;2023-07-08T08:47:58;4.50;;;2.40;;
50281;SDS011;36176;51.506;10.272;2023-07-08T08:53:36;3.33;;;2.40;;
50281;SDS011;36176;51.506;10.272;2023-07-08T08:56:05;4.40;;;2.50;;
50281;SDS011;36176;51.506;10.272;2023-07-08T08:58:45;3.10;;;2.40;;
50281;SDS011;36176;51.506;10.272;2023-07-08T09:01:22;2.45;;;2.25;;
50281;SDS011;36176;51.506;10.272;2023-07-08T09:03:55;4.22;;;2.83;;
50281;SDS011;36176;51.506;10.272;2023-07-08T09:06:27;5.75;;;2.42;;
50281;SDS011;36176;51.506;10.272;2023-07-08T09:08:57;3.40;;;2.25;;
50281;SDS011;36176;51.506;10.272;2023-07-08T09:11:38;6.10;;;2.67;;
50281;SDS011;36176;51.506;10.272;2023-07-08T09:14:13;3.42;;;2.75;;
50281;SDS011;36176;51.506;10.272;2023-07-08T09:17:14;3.75;;;2.88;;
50281;SDS011;36176;51.506;10.272;2023-07-08T09:19:49;7.88;;;5.90;;
50281;SDS011;36176;51.506;10.272;2023-07-08T09:22:34;6.38;;;2.80;;
50281;SDS011;36176;51.506;10.272;2023-07-08T09:27:48;4.03;;;2.85;;
50281;SDS011;36176;51.506;10.272;2023-07-08T09:30:16;4.20;;;2.78;;
50281;SDS011;36176;51.506;10.272;2023-07-08T09:32:47;4.38;;;2.50;;
50281;SDS011;36176;51.506;10.272;2023-07-08T09:35:29;2.97;;;2.70;;
50281;SDS011;36176;51.506;10.272;2023-07-08T09:38:07;3.85;;;2.97;;
50281;SDS011;36176;51.506;10.272;2023-07-08T09:40:36;7.45;;;3.28;;
50281;SDS011;36176;51.506;10.272;2023-07-08T09:43:16;4.15;;;2.83;;
50281;SDS011;36176;51.506;10.272;2023-07-08T09:45:46;4.07;;;2.63;;
50281;SDS011;36176;51.506;10.272;2023-07-08T09:48:16;3.33;;;3.03;;
50281;SDS011;36176;51.506;10.272;2023-07-08T09:50:47;3.25;;;2.70;;
50281;SDS011;36176;51.506;10.272;2023-07-08T09:53:16;4.18;;;2.78;;
50281;SDS011;36176;51.506;10.272;2023-07-08T09:55:43;5.95;;;3.75;;
50281;SDS011;36176;51.506;10.272;2023-07-08T09:58:15;7.32;;;3.03;;
50281;SDS011;36176;51.506;10.272;2023-07-08T10:00:59;4.35;;;2.92;;
50281;SDS011;36176;51.506;10.272;2023-07-08T10:03:33;4.50;;;3.00;;
50281;SDS011;36176;51.506;10.272;2023-07-08T10:06:04;3.20;;;2.55;;
50281;SDS011;36176;51.506;10.272;2023-07-08T10:08:39;2.97;;;2.60;;
50281;SDS011;36176;51.506;10.272;2023-07-08T10:13:50;3.05;;;2.85;;
50281;SDS011;36176;51.506;10.272;2023-07-08T10:16:38;4.28;;;2.60;;
50281;SDS011;36176;51.506;10.272;2023-07-08T10:19:09;3.40;;;3.10;;
50281;SDS011;36176;51.506;10.272;2023-07-08T10:22:02;5.32;;;3.63;;
50281;SDS011;36176;51.506;10.272;2023-07-08T10:27:46;3.53;;;2.65;;
50281;SDS011;36176;51.506;10.272;2023-07-08T10:30:24;5.63;;;2.95;;
50281;SDS011;36176;51.506;10.272;2023-07-08T10:32:55;2.60;;;2.40;;
50281;SDS011;36176;51.506;10.272;2023-07-08T10:35:45;2.75;;;2.53;;
50281;SDS011;36176;51.506;10.272;2023-07-08T10:41:48;3.42;;;2.90;;
50281;SDS011;36176;51.506;10.272;2023-07-08T10:44:41;2.75;;;2.55;;
50281;SDS011;36176;51.506;10.272;2023-07-08T10:50:18;4.25;;;3.25;;
50281;SDS011;36176;51.506;10.272;2023-07-08T10:55:44;2.92;;;2.72;;
50281;SDS011;36176;51.506;10.272;2023-07-08T10:58:22;5.75;;;5.25;;
50281;SDS011;36176;51.506;10.272;2023-07-08T11:06:50;4.22;;;2.90;;
50281;SDS011;36176;51.506;10.272;2023-07-08T11:09:24;3.60;;;3.30;;
50281;SDS011;36176;51.506;10.272;2023-07-08T11:12:01;3.50;;;3.20;;
50281;SDS011;36176;51.506;10.272;2023-07-08T11:14:49;4.68;;;3.58;;
50281;SDS011;36176;51.506;10.272;2023-07-08T11:17:22;3.13;;;2.88;;
50281;SDS011;36176;51.506;10.272;2023-07-08T11:20:00;3.97;;;3.65;;
50281;SDS011;36176;51.506;10.272;2023-07-08T11:22:37;5.40;;;3.58;;
50281;SDS011;36176;51.506;10.272;2023-07-08T11:25:20;3.28;;;2.80;;
50281;SDS011;36176;51.506;10.272;2023-07-08T11:27:51;4.53;;;4.13;;
50281;SDS011;36176;51.506;10.272;2023-07-08T11:30:21;9.25;;;3.30;;
50281;SDS011;36176;51.506;10.272;2023-07-08T11:33:04;3.85;;;3.55;;
50281;SDS011;36176;51.506;10.272;2023-07-08T11:35:44;3.42;;;3.22;;
50281;SDS011;36176;51.506;10.272;2023-07-08T11:38:16;4.85;;;4.38;;
50281;SDS011;36176;51.506;10.272;2023-07-08T11:40:50;2.97;;;2.70;;
50281;SDS011;36176;51.506;10.272;2023-07-08T11:43:18;3.50;;;3.22;;
50281;SDS011;36176;51.506;10.272;2023-07-08T11:45:48;4.60;;;4.30;;
50281;SDS011;36176;51.506;10.272;2023-07-08T11:48:25;4.90;;;4.22;;
50281;SDS011;36176;51.506;10.272;2023-07-08T11:50:57;3.13;;;2.83;;
50281;SDS011;36176;51.506;10.272;2023-07-08T11:58:32;2.95;;;2.75;;
50281;SDS011;36176;51.506;10.272;2023-07-08T12:03:55;3.95;;;3.13;;
50281;SDS011;36176;51.506;10.272;2023-07-08T12:08:55;4.18;;;3.33;;
50281;SDS011;36176;51.506;10.272;2023-07-08T12:11:40;3.42;;;3.13;;
50281;SDS011;36176;51.506;10.272;2023-07-08T12:14:10;3.45;;;3.15;;
50281;SDS011;36176;51.506;10.272;2023-07-08T12:16:37;3.60;;;3.30;;
50281;SDS011;36176;51.506;10.272;2023-07-08T12:19:05;3.17;;;2.90;;
50281;SDS011;36176;51.506;10.272;2023-07-08T12:21:35;4.13;;;3.70;;
50281;SDS011;36176;51.506;10.272;2023-07-08T12:24:06;3.50;;;3.15;;
50281;SDS011;36176;51.506;10.272;2023-07-08T12:26:34;4.30;;;3.35;;
50281;SDS011;36176;51.506;10.272;2023-07-08T12:29:01;3.10;;;2.90;;
50281;SDS011;36176;51.506;10.272;2023-07-08T12:31:28;3.70;;;3.00;;
50281;SDS011;36176;51.506;10.272;2023-07-08T12:33:58;3.45;;;3.17;;
50281;SDS011;36176;51.506;10.272;2023-07-08T12:36:27;3.67;;;3.38;;
50281;SDS011;36176;51.506;10.272;2023-07-08T12:38:57;3.30;;;3.00;;
50281;SDS011;36176;51.506;10.272;2023-07-08T12:41:31;4.68;;;4.38;;
50281;SDS011;36176;51.506;10.272;2023-07-08T12:44:01;4.13;;;3.28;;
50281;SDS011;36176;51.506;10.272;2023-07-08T12:46:29;4.32;;;2.90;;
50281;SDS011;36176;51.506;10.272;2023-07-08T12:48:57;4.47;;;3.42;;
50281;SDS011;36176;51.506;10.272;2023-07-08T12:51:25;4.10;;;3.00;;
50281;SDS011;36176;51.506;10.272;2023-07-08T12:53:56;3.83;;;3.25;;
50281;SDS011;36176;51.506;10.272;2023-07-08T12:56:23;4.35;;;3.33;;
50281;SDS011;36176;51.506;10.272;2023-07-08T12:58:55;3.63;;;3.33;;
50281;SDS011;36176;51.506;10.272;2023-07-08T13:01:25;3.20;;;3.00;;
50281;SDS011;36176;51.506;10.272;2023-07-08T13:03:58;5.95;;;3.80;;
50281;SDS011;36176;51.506;10.272;2023-07-08T13:06:29;3.20;;;2.90;;
50281;SDS011;36176;51.506;10.272;2023-07-08T13:09:00;3.13;;;2.83;;
50281;SDS011;36176;51.506;10.272;2023-07-08T13:11:35;3.78;;;3.03;;
50281;SDS011;36176;51.506;10.272;2023-07-08T13:14:04;5.70;;;3.25;;
50281;SDS011;36176;51.506;10.272;2023-07-08T13:16:33;2.85;;;2.65;;
50281;SDS011;36176;51.506;10.272;2023-07-08T13:19:02;4.13;;;3.30;;
50281;SDS011;36176;51.506;10.272;2023-07-08T13:21:30;3.10;;;2.88;;
50281;SDS011;36176;51.506;10.272;2023-07-08T13:23:58;3.33;;;3.03;;
50281;SDS011;36176;51.506;10.272;2023-07-08T13:26:27;3.97;;;3.22;;
50281;SDS011;36176;51.506;10.272;2023-07-08T13:29:00;3.40;;;3.10;;
50281;SDS011;36176;51.506;10.272;2023-07-08T13:31:33;3.65;;;3.33;;
50281;SDS011;36176;51.506;10.272;2023-07-08T13:34:15;3.88;;;3.15;;
50281;SDS011;36176;51.506;10.272;2023-07-08T13:36:44;5.22;;;3.13;;
50281;SDS011;36176;51.506;10.272;2023-07-08T13:39:18;3.47;;;3.17;;
50281;SDS011;36176;51.506;10.272;2023-07-08T13:41:50;3.65;;;3.33;;
50281;SDS011;36176;51.506;10.272;2023-07-08T13:44:18;3.00;;;2.80;;
50281;SDS011;36176;51.506;10.272;2023-07-08T13:46:51;4.28;;;2.92;;
50281;SDS011;36176;51.506;10.272;2023-07-08T13:49:25;3.47;;;3.28;;
50281;SDS011;36176;51.506;10.272;2023-07-08T13:52:15;3.60;;;3.30;;
50281;SDS011;36176;51.506;10.272;2023-07-08T13:54:47;3.10;;;2.90;;
50281;SDS011;36176;51.506;10.272;2023-07-08T13:57:29;3.15;;;2.83;;
50281;SDS011;36176;51.506;10.272;2023-07-08T14:00:00;3.88;;;3.30;;
50281;SDS011;36176;51.506;10.272;2023-07-08T14:02:28;3.85;;;3.10;;
50281;SDS011;36176;51.506;10.272;2023-07-08T14:04:58;3.28;;;2.97;;
50281;SDS011;36176;51.506;10.272;2023-07-08T14:07:28;4.35;;;3.00;;
50281;SDS011;36176;51.506;10.272;2023-07-08T14:09:57;6.50;;;2.95;;
50281;SDS011;36176;51.506;10.272;2023-07-08T14:12:24;3.50;;;3.03;;
50281;SDS011;36176;51.506;10.272;2023-07-08T14:14:51;3.50;;;3.20;;
50281;SDS011;36176;51.506;10.272;2023-07-08T14:17:20;3.33;;;3.00;;
50281;SDS011;36176;51.506;10.272;2023-07-08T14:19:51;3.75;;;3.30;;
50281;SDS011;36176;51.506;10.272;2023-07-08T14:22:22;5.78;;;3.20;;
50281;SDS011;36176;51.506;10.272;2023-07-08T14:24:54;6.13;;;3.42;;
50281;SDS011;36176;51.506;10.272;2023-07-08T14:27:22;3.72;;;3.25;;
50281;SDS011;36176;51.506;10.272;2023-07-08T14:29:50;3.97;;;3.58;;
50281;SDS011;36176;51.506;10.272;2023-07-08T14:32:22;3.50;;;3.17;;
50281;SDS011;36176;51.506;10.272;2023-07-08T14:35:16;3.95;;;3.40;;
50281;SDS011;36176;51.506;10.272;2023-07-08T14:37:41;3.67;;;3.33;;
50281;SDS011;36176;51.506;10.272;2023-07-08T14:40:19;3.20;;;3.00;;
50281;SDS011;36176;51.506;10.272;2023-07-08T14:42:56;3.85;;;3.53;;
50281;SDS011;36176;51.506;10.272;2023-07-08T14:45:27;5.82;;;3.53;;
50281;SDS011;36176;51.506;10.272;2023-07-08T14:47:56;5.32;;;3.22;;
50281;SDS011;36176;51.506;10.272;2023-07-08T14:50:23;3.60;;;3.08;;
50281;SDS011;36176;51.506;10.272;2023-07-08T14:52:52;5.32;;;3.40;;
50281;SDS011;36176;51.506;10.272;2023-07-08T14:55:19;3.40;;;3.10;;
50281;SDS011;36176;51.506;10.272;2023-07-08T14:57:47;4.47;;;3.13;;
50281;SDS011;36176;51.506;10.272;2023-07-08T15:00:16;4.88;;;3.50;;
50281;SDS011;36176;51.506;10.272;2023-07-08T15:02:45;5.82;;;3.40;;
50281;SDS011;36176;51.506;10.272;2023-07-08T15:05:23;3.65;;;3.35;;
50281;SDS011;36176;51.506;10.272;2023-07-08T15:07:52;3.58;;;2.90;;
50281;SDS011;36176;51.506;10.272;2023-07-08T15:10:22;5.22;;;3.35;;
50281;SDS011;36176;51.506;10.272;2023-07-08T15:12:51;3.35;;;3.05;;
50281;SDS011;36176;51.506;10.272;2023-07-08T15:17:57;5.00;;;3.30;;
50281;SDS011;36176;51.506;10.272;2023-07-08T15:20:26;3.40;;;3.00;;
50281;SDS011;36176;51.506;10.272;2023-07-08T15:22:53;4.85;;;3.28;;
50281;SDS011;36176;51.506;10.272;2023-07-08T15:25:20;5.07;;;3.50;;
50281;SDS011;36176;51.506;10.272;2023-07-08T15:27:49;4.38;;;3.08;;
50281;SDS011;36176;51.506;10.272;2023-07-08T15:30:19;5.22;;;3.63;;
50281;SDS011;36176;51.506;10.272;2023-07-08T15:32:46;9.40;;;8.50;;
50281;SDS011;36176;51.506;10.272;2023-07-08T15:35:16;5.45;;;4.00;;
50281;SDS011;36176;51.506;10.272;2023-07-08T15:37:52;4.78;;;3.40;;